Witmer Manor, Indiana
Current Conditions -  °F | °C
As of 4:35 AM on Monday 24 Nov 2014 (Local Time) from KANQ Reporting Station
Overcast Overcast  
Wind Chill: 52°   Ceiling: 1100
Heat Index: 52°   Visibility: 6mi
Dew Point: 43°   Wind: 14mph
Humidity: 71%   Direction: 240°WSW
Pressure: 29.13"   Gusts: NA
Location:  41.5677°N, 85.3125°W
Report Text: KANQ 240935Z AUTO 24012KT 6SM OVC011 11/06 A2913 RMK
Loading
Personal Weather Stations






























Interactive Weather Map New forecast layout! Learn more

10-Day Weather Forecast

Advertisements
Track Severe Weather on mobile